Time;durP1;ratioP1;P1;durP2;ratioP2;P2;SDS_P1;SDS_P2;PMS_P1;PMS_P2;Temp;Humidity;BMP_temperature;BMP_pressure;BME280_temperature;BME280_humidity;BME280_pressure;Samples;Min_cycle;Max_cycle;Signal;HPM_P1;HPM_P2
2024/01/10 00:02:21;;;;;;;;;;;;;;;;;;5052138;28;20025;-86
2024/01/10 00:04:47;;;;;;;;;;;;;;;;;;5035094;28;19925;-86
2024/01/10 00:07:12;;;;;;;;;;;;;;;;;;5047285;28;19933;-87
2024/01/10 00:09:38;;;;;;;;;;;;;;;;;;5032291;28;19964;-87
2024/01/10 00:12:04;;;;;;;;;;;;;;;;;;5046120;28;19942;-84
2024/01/10 00:14:30;;;;;;;;;;;;;;;;;;5035356;28;19932;-86
2024/01/10 00:16:56;;;;;;;;;;;;;;;;;;5031316;28;20027;-84
2024/01/10 00:19:22;;;;;;;;;;;;;;;;;;5041952;28;19925;-86
2024/01/10 00:21:48;;;;;;;;;;;;;;;;;;5034272;28;19970;-85
2024/01/10 00:24:14;;;;;;;;;;;;;;;;;;5029307;28;19929;-87
2024/01/10 00:26:40;;;;;;;;;;;;;;;;;;5030941;28;19928;-84
2024/01/10 00:29:06;;;;;;;;;;;;;;;;;;5029560;28;20362;-86
2024/01/10 00:31:32;;;;;;;;;;;;;;;;;;5028070;28;19931;-85
2024/01/10 00:33:58;;;;;;;;;;;;;;;;;;5054605;28;19932;-85
2024/01/10 00:36:24;;;;;;;;;;;;;;;;;;5053832;28;20368;-85
2024/01/10 00:38:50;;;;;;;;;;;;;;;;;;5034683;28;19960;-86
2024/01/10 00:41:16;;;;;;;;;;;;;;;;;;5044949;28;19931;-86
2024/01/10 00:43:42;;;;;;;;;;;;;;;;;;5053855;28;19969;-86
2024/01/10 00:46:08;;;;;;;;;;;;;;;;;;5036877;28;20021;-83
2024/01/10 00:48:34;;;;;;;;;;;;;;;;;;5053059;28;20395;-86
2024/01/10 00:51:00;;;;;;;;;;;;;;;;;;5037169;28;19924;-84
2024/01/10 00:53:26;;;;;;;;;;;;;;;;;;5036390;28;19956;-86
2024/01/10 00:55:52;;;;;;;;;;;;;;;;;;5054220;28;19924;-86
2024/01/10 00:58:18;;;;;;;;;;;;;;;;;;5043357;28;20525;-84
2024/01/10 01:00:44;;;;;;;;;;;;;;;;;;5039012;28;20037;-86
2024/01/10 01:03:10;;;;;;;;;;;;;;;;;;5033896;28;19925;-85
2024/01/10 01:05:36;;;;;;;;;;;;;;;;;;5035244;28;20377;-85
2024/01/10 01:08:02;;;;;;;;;;;;;;;;;;5052836;28;19925;-86
2024/01/10 01:10:28;;;;;;;;;;;;;;;;;;5031547;28;19929;-84
2024/01/10 01:12:55;;;;;;;;;;;;;;;;;;5037349;28;19986;-86
2024/01/10 01:15:21;;;;;;;;;;;;;;;;;;5053563;28;19934;-86
2024/01/10 01:17:47;;;;;;;;;;;;;;;;;;5054684;28;19925;-85
2024/01/10 01:20:12;;;;;;;;;;;;;;;;;;5022488;28;20401;-85
2024/01/10 01:22:38;;;;;;;;;;;;;;;;;;5017805;28;20650;-86
2024/01/10 01:25:04;;;;;;;;;;;;;;;;;;5037265;28;19951;-86
2024/01/10 01:27:30;;;;;;;;;;;;;;;;;;5025165;28;19928;-85
2024/01/10 01:29:56;;;;;;;;;;;;;;;;;;5057194;28;19925;-86
2024/01/10 01:32:22;;;;;;;;;;;;;;;;;;5029981;28;19991;-85
2024/01/10 01:34:48;;;;;;;;;;;;;;;;;;5052404;28;20062;-86
2024/01/10 01:37:14;;;;;;;;;;;;;;;;;;5040829;28;19939;-86
2024/01/10 01:39:40;;;;;;;;;;;;;;;;;;5057547;28;19924;-86
2024/01/10 01:42:06;;;;;;;;;;;;;;;;;;5040500;28;19924;-86
2024/01/10 01:44:32;;;;;;;;;;;;;;;;;;5033834;28;19947;-86
2024/01/10 01:46:58;;;;;;;;;;;;;;;;;;5024559;28;20437;-86
2024/01/10 01:49:25;;;;;;;;;;;;;;;;;;5056874;28;19967;-85
2024/01/10 01:51:50;;;;;;;;;;;;;;;;;;5024010;28;19929;-86
2024/01/10 01:54:16;;;;;;;;;;;;;;;;;;5057044;28;19924;-87
2024/01/10 01:56:42;;;;;;;;;;;;;;;;;;5057380;28;19924;-86
2024/01/10 01:59:08;;;;;;;;;;;;;;;;;;5023151;28;20331;-86
2024/01/10 02:01:34;;;;;;;;;;;;;;;;;;5037809;28;20039;-84
2024/01/10 02:04:00;;;;;;;;;;;;;;;;;;5037591;28;20003;-86
2024/01/10 02:06:26;;;;;;;;;;;;;;;;;;5036902;28;19929;-86
2024/01/10 02:08:52;;;;;;;;;;;;;;;;;;5040533;28;19932;-85
2024/01/10 02:11:18;;;;;;;;;;;;;;;;;;5055947;28;19924;-87
2024/01/10 02:13:44;;;;;;;;;;;;;;;;;;5044767;28;20373;-84
2024/01/10 02:16:10;;;;;;;;;;;;;;;;;;5037070;28;20286;-85
2024/01/10 02:18:36;;;;;;;;;;;;;;;;;;5037321;28;20022;-86
2024/01/10 02:21:02;;;;;;;;;;;;;;;;;;5037401;28;19929;-87
2024/01/10 02:23:28;;;;;;;;;;;;;;;;;;5038933;28;19925;-87
2024/01/10 02:25:54;;;;;;;;;;;;;;;;;;5056882;28;19959;-86
2024/01/10 02:28:20;;;;;;;;;;;;;;;;;;5055439;28;19932;-86
2024/01/10 02:30:47;;;;;;;;;;;;;;;;;;5039916;28;19924;-86
2024/01/10 02:33:13;;;;;;;;;;;;;;;;;;5039473;28;20007;-86
2024/01/10 02:35:39;;;;;;;;;;;;;;;;;;5055991;28;19971;-86
2024/01/10 02:38:05;;;;;;;;;;;;;;;;;;5022615;28;19935;-86
2024/01/10 02:40:31;;;;;;;;;;;;;;;;;;5036514;28;19921;-87
2024/01/10 02:42:56;;;;;;;;;;;;;;;;;;5023395;28;20432;-87
2024/01/10 02:45:22;;;;;;;;;;;;;;;;;;5023147;28;19931;-86
2024/01/10 02:47:48;;;;;;;;;;;;;;;;;;5057041;28;19928;-87
2024/01/10 02:50:15;;;;;;;;;;;;;;;;;;5039386;28;19991;-85
2024/01/10 02:52:41;;;;;;;;;;;;;;;;;;5039970;28;20468;-86
2024/01/10 02:55:07;;;;;;;;;;;;;;;;;;5056392;28;19968;-86
2024/01/10 02:57:33;;;;;;;;;;;;;;;;;;5033076;28;19924;-85
2024/01/10 02:59:59;;;;;;;;;;;;;;;;;;5039814;28;19929;-87
2024/01/10 03:02:25;;;;;;;;;;;;;;;;;;5036235;28;19929;-86
2024/01/10 03:04:51;;;;;;;;;;;;;;;;;;5019832;28;20119;-86
2024/01/10 03:07:16;;;;;;;;;;;;;;;;;;5046763;28;19924;-84
2024/01/10 03:09:43;;;;;;;;;;;;;;;;;;5056182;28;19925;-86
2024/01/10 03:12:09;;;;;;;;;;;;;;;;;;5056230;28;20364;-86
2024/01/10 03:14:35;;;;;;;;;;;;;;;;;;5054397;28;19936;-84
2024/01/10 03:17:01;;;;;;;;;;;;;;;;;;5054717;28;19924;-86
2024/01/10 03:19:27;;;;;;;;;;;;;;;;;;5038189;28;19967;-87
2024/01/10 03:21:53;;;;;;;;;;;;;;;;;;5039379;28;20368;-85
2024/01/10 03:24:19;;;;;;;;;;;;;;;;;;5054805;28;19932;-87
2024/01/10 03:26:45;;;;;;;;;;;;;;;;;;5039170;28;20289;-86
2024/01/10 03:29:11;;;;;;;;;;;;;;;;;;5054435;28;19929;-86
2024/01/10 03:31:37;;;;;;;;;;;;;;;;;;5055567;28;20085;-86
2024/01/10 03:34:03;;;;;;;;;;;;;;;;;;5038735;28;19928;-86
2024/01/10 03:36:29;;;;;;;;;;;;;;;;;;5038751;28;20020;-86
2024/01/10 03:38:55;;;;;;;;;;;;;;;;;;5039026;28;19928;-85
2024/01/10 03:41:21;;;;;;;;;;;;;;;;;;5040720;28;19924;-85
2024/01/10 03:43:47;;;;;;;;;;;;;;;;;;5044353;28;19947;-86
2024/01/10 03:46:13;;;;;;;;;;;;;;;;;;5054602;28;19924;-86
2024/01/10 03:48:47;;;;;;;;;;;;;;;;;;5054583;28;20082;-86
2024/01/10 03:51:13;;;;;;;;;;;;;;;;;;5038353;28;19932;-86
2024/01/10 03:53:39;;;;;;;;;;;;;;;;;;5017944;28;19925;-86
2024/01/10 03:56:05;;;;;;;;;;;;;;;;;;5035127;28;19925;-86
2024/01/10 03:58:31;;;;;;;;;;;;;;;;;;5017415;28;19925;-86
2024/01/10 04:00:57;;;;;;;;;;;;;;;;;;5034606;28;19925;-86
2024/01/10 04:03:23;;;;;;;;;;;;;;;;;;5018950;28;19928;-85
2024/01/10 04:05:49;;;;;;;;;;;;;;;;;;5032188;28;19964;-86
2024/01/10 04:08:15;;;;;;;;;;;;;;;;;;5034942;28;19928;-86
2024/01/10 04:10:41;;;;;;;;;;;;;;;;;;5034313;28;20451;-86
2024/01/10 04:13:07;;;;;;;;;;;;;;;;;;5053834;28;19960;-86
2024/01/10 04:15:34;;;;;;;;;;;;;;;;;;5053903;28;19996;-85
2024/01/10 04:18:00;;;;;;;;;;;;;;;;;;5055242;28;19935;-86
2024/01/10 04:20:26;;;;;;;;;;;;;;;;;;5054361;28;20011;-86
2024/01/10 04:22:53;;;;;;;;;;;;;;;;;;5054794;28;19935;-85
2024/01/10 04:25:19;;;;;;;;;;;;;;;;;;5054707;28;19925;-86
2024/01/10 04:27:45;;;;;;;;;;;;;;;;;;5052488;28;20008;-86
2024/01/10 04:30:10;;;;;;;;;;;;;;;;;;5018671;28;19929;-85
2024/01/10 04:32:36;;;;;;;;;;;;;;;;;;5051198;28;19947;-86
2024/01/10 04:35:02;;;;;;;;;;;;;;;;;;5018300;28;19924;-86
2024/01/10 04:37:28;;;;;;;;;;;;;;;;;;5026519;28;19977;-85
2024/01/10 04:39:54;;;;;;;;;;;;;;;;;;5037763;28;19928;-86
2024/01/10 04:42:20;;;;;;;;;;;;;;;;;;5054748;28;20042;-86
2024/01/10 04:44:46;;;;;;;;;;;;;;;;;;5052796;28;20361;-86
2024/01/10 04:47:12;;;;;;;;;;;;;;;;;;5037807;28;19928;-86
2024/01/10 04:49:38;;;;;;;;;;;;;;;;;;5051968;28;19925;-86
2024/01/10 04:52:04;;;;;;;;;;;;;;;;;;5054605;28;19986;-86
2024/01/10 04:54:30;;;;;;;;;;;;;;;;;;5042096;28;19924;-85
2024/01/10 04:56:56;;;;;;;;;;;;;;;;;;5049453;28;20007;-86
2024/01/10 04:59:22;;;;;;;;;;;;;;;;;;5038940;28;20341;-85
2024/01/10 05:01:48;;;;;;;;;;;;;;;;;;5038202;28;19975;-86
2024/01/10 05:04:14;;;;;;;;;;;;;;;;;;5039143;28;19929;-86
2024/01/10 05:06:41;;;;;;;;;;;;;;;;;;5038324;28;19932;-86
2024/01/10 05:09:07;;;;;;;;;;;;;;;;;;5022254;28;19932;-87
2024/01/10 05:11:35;;;;;;;;;;;;;;;;;;5021388;28;19924;-86
2024/01/10 05:14:01;;;;;;;;;;;;;;;;;;5032315;28;19929;-86
2024/01/10 05:16:27;;;;;;;;;;;;;;;;;;5054847;28;19925;-85
2024/01/10 05:18:53;;;;;;;;;;;;;;;;;;5037918;28;19971;-87
2024/01/10 05:21:19;;;;;;;;;;;;;;;;;;5037912;28;19954;-86
2024/01/10 05:23:45;;;;;;;;;;;;;;;;;;5033392;28;19924;-86
2024/01/10 05:26:11;;;;;;;;;;;;;;;;;;5041662;28;19946;-85
2024/01/10 05:28:37;;;;;;;;;;;;;;;;;;5056335;28;19931;-85
2024/01/10 05:31:03;;;;;;;;;;;;;;;;;;5027141;28;19970;-85
2024/01/10 05:33:29;;;;;;;;;;;;;;;;;;5037981;28;19932;-86
2024/01/10 05:35:55;;;;;;;;;;;;;;;;;;5039430;28;19929;-86
2024/01/10 05:38:21;;;;;;;;;;;;;;;;;;5029320;28;19925;-86
2024/01/10 05:40:47;;;;;;;;;;;;;;;;;;5037333;28;19951;-85
2024/01/10 05:43:15;;;;;;;;;;;;;;;;;;5039791;28;19932;-85
2024/01/10 05:45:41;;;;;;;;;;;;;;;;;;5036886;28;19933;-86
2024/01/10 05:48:07;;;;;;;;;;;;;;;;;;5038120;28;19932;-86
2024/01/10 05:50:33;;;;;;;;;;;;;;;;;;5037649;28;19967;-84
2024/01/10 05:52:59;;;;;;;;;;;;;;;;;;5020798;28;19932;-86
2024/01/10 05:55:25;;;;;;;;;;;;;;;;;;5021424;28;20351;-85
2024/01/10 05:57:50;;;;;;;;;;;;;;;;;;5029836;28;19935;-85
2024/01/10 06:00:16;;;;;;;;;;;;;;;;;;5025803;28;19928;-86
2024/01/10 06:02:42;;;;;;;;;;;;;;;;;;5034076;28;19932;-84
2024/01/10 06:05:08;;;;;;;;;;;;;;;;;;5021097;28;20420;-86
2024/01/10 06:07:34;;;;;;;;;;;;;;;;;;5037165;28;19928;-83
2024/01/10 06:10:01;;;;;;;;;;;;;;;;;;5034761;28;20285;-86
2024/01/10 06:12:27;;;;;;;;;;;;;;;;;;5039584;28;19931;-86
2024/01/10 06:14:53;;;;;;;;;;;;;;;;;;5036030;28;19925;-86
2024/01/10 06:17:19;;;;;;;;;;;;;;;;;;5053153;28;20020;-86
2024/01/10 06:19:45;;;;;;;;;;;;;;;;;;5053085;28;19925;-86
2024/01/10 06:22:11;;;;;;;;;;;;;;;;;;5037607;28;19931;-86
2024/01/10 06:24:37;;;;;;;;;;;;;;;;;;5053372;28;19924;-84
2024/01/10 06:27:04;;;;;;;;;;;;;;;;;;5038785;28;19929;-85
2024/01/10 06:29:30;;;;;;;;;;;;;;;;;;5032100;28;19925;-86
2024/01/10 06:31:57;;;;;;;;;;;;;;;;;;5056595;28;20047;-86
2024/01/10 06:34:23;;;;;;;;;;;;;;;;;;5040356;28;19947;-86
2024/01/10 06:36:49;;;;;;;;;;;;;;;;;;5039623;28;19929;-85
2024/01/10 06:39:15;;;;;;;;;;;;;;;;;;5040766;28;20015;-86
2024/01/10 06:41:42;;;;;;;;;;;;;;;;;;5018979;28;19925;-86
2024/01/10 06:44:08;;;;;;;;;;;;;;;;;;5023118;28;19977;-85
2024/01/10 06:46:34;;;;;;;;;;;;;;;;;;5037039;28;20344;-86
2024/01/10 06:49:00;;;;;;;;;;;;;;;;;;5038325;28;20414;-86
2024/01/10 06:51:29;;;;;;;;;;;;;;;;;;5039944;28;19924;-85
2024/01/10 06:54:02;;;;;;;;;;;;;;;;;;5055493;28;19982;-86
2024/01/10 06:56:28;;;;;;;;;;;;;;;;;;5019795;28;20016;-85
2024/01/10 06:58:54;;;;;;;;;;;;;;;;;;5054369;28;20019;-86
2024/01/10 07:01:21;;;;;;;;;;;;;;;;;;5039934;28;19979;-86
2024/01/10 07:03:47;;;;;;;;;;;;;;;;;;5036903;28;19935;-85
2024/01/10 07:06:14;;;;;;;;;;;;;;;;;;5040768;28;20369;-85
2024/01/10 07:08:42;;;;;;;;;;;;;;;;;;5053026;28;19925;-84
2024/01/10 07:11:08;;;;;;;;;;;;;;;;;;5035942;28;19928;-86
2024/01/10 07:13:34;;;;;;;;;;;;;;;;;;5037780;28;19924;-86
2024/01/10 07:16:01;;;;;;;;;;;;;;;;;;5038583;28;19971;-85
2024/01/10 07:18:27;;;;;;;;;;;;;;;;;;5039013;28;19924;-84
2024/01/10 07:20:53;;;;;;;;;;;;;;;;;;5023923;28;20019;-86
2024/01/10 07:23:19;;;;;;;;;;;;;;;;;;5035568;28;19951;-85
2024/01/10 07:25:45;;;;;;;;;;;;;;;;;;5018394;28;19929;-84
2024/01/10 07:28:11;;;;;;;;;;;;;;;;;;5050984;28;19924;-73
2024/01/10 07:30:37;;;;;;;;;;;;;;;;;;5051666;28;19925;-76
2024/01/10 07:33:03;;;;;;;;;;;;;;;;;;5059824;28;20376;-84
2024/01/10 07:35:30;;;;;;;;;;;;;;;;;;5039640;28;19925;-88
2024/01/10 07:37:56;;;;;;;;;;;;;;;;;;5035292;28;20362;-86
2024/01/10 07:40:22;;;;;;;;;;;;;;;;;;5018983;28;19936;-82
2024/01/10 07:42:48;;;;;;;;;;;;;;;;;;5033546;28;19929;-84
2024/01/10 07:45:14;;;;;;;;;;;;;;;;;;5034977;28;19936;-84
2024/01/10 07:47:40;;;;;;;;;;;;;;;;;;5035410;28;20023;-84
2024/01/10 07:50:06;;;;;;;;;;;;;;;;;;5018417;28;19921;-84
2024/01/10 07:52:32;;;;;;;;;;;;;;;;;;5018321;28;19932;-84
2024/01/10 07:54:58;;;;;;;;;;;;;;;;;;5036445;28;20284;-84
2024/01/10 07:57:24;;;;;;;;;;;;;;;;;;5042592;28;19925;-85
2024/01/10 07:59:50;;;;;;;;;;;;;;;;;;5033297;28;19924;-85
2024/01/10 08:02:16;;;;;;;;;;;;;;;;;;5035125;28;19929;-84
2024/01/10 08:04:42;;;;;;;;;;;;;;;;;;5035250;28;19970;-85
2024/01/10 08:07:08;;;;;;;;;;;;;;;;;;5034309;28;19933;-84
2024/01/10 08:09:34;;;;;;;;;;;;;;;;;;5034638;28;20027;-85
2024/01/10 08:12:00;;;;;;;;;;;;;;;;;;5034318;28;20361;-84
2024/01/10 08:14:26;;;;;;;;;;;;;;;;;;5033488;28;19932;-85
2024/01/10 08:16:54;;;;;;;;;;;;;;;;;;5047956;28;19924;-84
2024/01/10 08:19:20;;;;;;;;;;;;;;;;;;5034507;28;19925;-85
2024/01/10 08:21:46;;;;;;;;;;;;;;;;;;5050026;28;20053;-84
2024/01/10 08:24:12;;;;;;;;;;;;;;;;;;5037481;28;19977;-85
2024/01/10 08:26:38;;;;;;;;;;;;;;;;;;5038018;28;19929;-85
2024/01/10 08:29:04;;;;;;;;;;;;;;;;;;5035678;28;19925;-84
2024/01/10 08:31:30;;;;;;;;;;;;;;;;;;5054508;28;20007;-84
2024/01/10 08:33:59;;;;;;;;;;;;;;;;;;5044842;28;19932;-84
2024/01/10 08:36:25;;;;;;;;;;;;;;;;;;5046426;28;20026;-84
2024/01/10 08:38:51;;;;;;;;;;;;;;;;;;5032727;28;19975;-83
2024/01/10 08:41:19;;;;;;;;;;;;;;;;;;5037737;28;19925;-85
2024/01/10 08:43:45;;;;;;;;;;;;;;;;;;5033439;28;19944;-85
2024/01/10 08:46:11;;;;;;;;;;;;;;;;;;5033809;28;20052;-85
2024/01/10 08:48:37;;;;;;;;;;;;;;;;;;5017812;28;19987;-84
2024/01/10 08:51:03;;;;;;;;;;;;;;;;;;5017018;28;19932;-85
2024/01/10 08:53:29;;;;;;;;;;;;;;;;;;5025877;28;19924;-84
2024/01/10 08:55:55;;;;;;;;;;;;;;;;;;5032318;28;19929;-83
2024/01/10 08:58:21;;;;;;;;;;;;;;;;;;5018486;28;20015;-83
2024/01/10 09:00:47;;;;;;;;;;;;;;;;;;5021153;28;20007;-83
2024/01/10 09:03:13;;;;;;;;;;;;;;;;;;5039954;28;20553;-84
2024/01/10 09:05:39;;;;;;;;;;;;;;;;;;5047429;28;19947;-83
2024/01/10 09:08:05;;;;;;;;;;;;;;;;;;5049999;28;19931;-83
2024/01/10 09:10:31;;;;;;;;;;;;;;;;;;5060343;28;19924;-84
2024/01/10 09:12:58;;;;;;;;;;;;;;;;;;5062320;28;19929;-83
2024/01/10 09:15:24;;;;;;;;;;;;;;;;;;5052627;28;20011;-84
2024/01/10 09:17:52;;;;;;;;;;;;;;;;;;5047734;28;19929;-83
2024/01/10 09:20:18;;;;;;;;;;;;;;;;;;5055305;28;19989;-84
2024/01/10 09:22:43;;;;;;;;;;;;;;;;;;5054932;28;20373;-87
2024/01/10 09:25:12;;;;;;;;;;;;;;;;;;5032455;28;19924;-91
2024/01/10 09:27:38;;;;;;;;;;;;;;;;;;5035466;28;19925;-89
2024/01/10 09:30:08;;;;;;;;;;;;;;;;;;5054728;28;19983;-88
2024/01/10 09:32:34;;;;;;;;;;;;;;;;;;5036360;28;19925;-88
2024/01/10 09:35:00;;;;;;;;;;;;;;;;;;5023264;28;20373;-85
2024/01/10 09:37:26;;;;;;;;;;;;;;;;;;5042877;28;19950;-85
2024/01/10 09:39:53;;;;;;;;;;;;;;;;;;5048112;28;19939;-84
2024/01/10 09:42:20;;;;;;;;;;;;;;;;;;5047635;28;20515;-86
2024/01/10 09:44:46;;;;;;;;;;;;;;;;;;5033271;28;19930;-86
2024/01/10 09:47:12;;;;;;;;;;;;;;;;;;5040127;28;20368;-86
2024/01/10 09:49:38;;;;;;;;;;;;;;;;;;5055032;28;19990;-87
2024/01/10 09:52:04;;;;;;;;;;;;;;;;;;5026510;28;19929;-87
2024/01/10 09:54:30;;;;;;;;;;;;;;;;;;5050232;28;19924;-87
2024/01/10 09:56:56;;;;;;;;;;;;;;;;;;5046750;28;19931;-86
2024/01/10 09:59:22;;;;;;;;;;;;;;;;;;5056088;28;19974;-86
2024/01/10 10:01:48;;;;;;;;;;;;;;;;;;5033404;28;20480;-86
2024/01/10 10:04:15;;;;;;;;;;;;;;;;;;5022182;28;19931;-83
2024/01/10 10:06:41;;;;;;;;;;;;;;;;;;5062910;28;19925;-88
2024/01/10 10:09:07;;;;;;;;;;;;;;;;;;5056792;28;19931;-85
2024/01/10 10:11:33;;;;;;;;;;;;;;;;;;5057715;28;19924;-87
2024/01/10 10:13:59;;;;;;;;;;;;;;;;;;5055776;28;19935;-90
2024/01/10 10:16:25;;;;;;;;;;;;;;;;;;5033516;28;19925;-82
2024/01/10 10:18:57;;;;;;;;;;;;;;;;;;5051173;28;19924;-89
2024/01/10 10:21:23;;;;;;;;;;;;;;;;;;5033567;28;19962;-89
2024/01/10 10:23:49;;;;;;;;;;;;;;;;;;5040078;28;19967;-89
2024/01/10 10:26:21;;;;;;;;;;;;;;;;;;5036577;28;20082;-89
2024/01/10 10:28:47;;;;;;;;;;;;;;;;;;5032067;28;19964;-90
2024/01/10 10:31:13;;;;;;;;;;;;;;;;;;5056772;28;19924;-90
2024/01/10 10:33:39;;;;;;;;;;;;;;;;;;5057291;28;19931;-90
2024/01/10 10:36:05;;;;;;;;;;;;;;;;;;5037476;28;20380;-90
2024/01/10 10:38:31;;;;;;;;;;;;;;;;;;5033189;28;19974;-89
2024/01/10 10:40:57;;;;;;;;;;;;;;;;;;5028644;28;19925;-90
2024/01/10 10:43:23;;;;;;;;;;;;;;;;;;5039399;28;19964;-90
2024/01/10 10:45:49;;;;;;;;;;;;;;;;;;5056721;28;20022;-90
2024/01/10 10:48:15;;;;;;;;;;;;;;;;;;5040197;28;20289;-90
2024/01/10 10:50:40;;;;;;;;;;;;;;;;;;5022638;28;19925;-90
2024/01/10 10:53:07;;;;;;;;;;;;;;;;;;5036969;28;19925;-89
2024/01/10 10:55:34;;;;;;;;;;;;;;;;;;5031262;28;20357;-89
2024/01/10 10:58:00;;;;;;;;;;;;;;;;;;5037858;28;20298;-87
2024/01/10 11:00:29;;;;;;;;;;;;;;;;;;5054778;28;19935;-88
2024/01/10 11:02:55;;;;;;;;;;;;;;;;;;5039377;28;20332;-87
2024/01/10 11:05:21;;;;;;;;;;;;;;;;;;5055307;28;19967;-88
2024/01/10 11:07:47;;;;;;;;;;;;;;;;;;5037786;28;19972;-82
2024/01/10 11:10:13;;;;;;;;;;;;;;;;;;5028869;28;20366;-82
2024/01/10 11:12:39;;;;;;;;;;;;;;;;;;5034393;28;19932;-87
2024/01/10 11:15:09;;;;;;;;;;;;;;;;;;5036316;28;19925;-85
2024/01/10 11:17:35;;;;;;;;;;;;;;;;;;5038749;28;19938;-84
2024/01/10 11:20:01;;;;;;;;;;;;;;;;;;5043554;28;19925;-85
2024/01/10 11:22:28;;;;;;;;;;;;;;;;;;5035262;28;19929;-79
2024/01/10 11:24:54;;;;;;;;;;;;;;;;;;5036558;28;19929;-86
2024/01/10 11:27:20;;;;;;;;;;;;;;;;;;5044643;28;20372;-86
2024/01/10 11:29:46;;;;;;;;;;;;;;;;;;5052492;28;20035;-85
2024/01/10 11:32:11;;;;;;;;;;;;;;;;;;5032490;28;19928;-85
2024/01/10 11:34:37;;;;;;;;;;;;;;;;;;5044761;28;19929;-87
2024/01/10 11:37:03;;;;;;;;;;;;;;;;;;5058738;28;20423;-76
2024/01/10 11:39:29;;;;;;;;;;;;;;;;;;5053962;28;19966;-75
2024/01/10 11:41:55;;;;;;;;;;;;;;;;;;5040160;28;19928;-84
2024/01/10 11:44:23;;;;;;;;;;;;;;;;;;5032632;28;19928;-84
2024/01/10 11:46:49;;;;;;;;;;;;;;;;;;5056402;28;19974;-84
2024/01/10 11:49:15;;;;;;;;;;;;;;;;;;5030285;28;19933;-82
2024/01/10 11:51:41;;;;;;;;;;;;;;;;;;5034781;28;19925;-82
2024/01/10 11:54:07;;;;;;;;;;;;;;;;;;5048408;28;20448;-83
2024/01/10 11:56:33;;;;;;;;;;;;;;;;;;5053660;28;19932;-78
2024/01/10 11:58:59;;;;;;;;;;;;;;;;;;5041470;28;20031;-79
2024/01/10 12:01:25;;;;;;;;;;;;;;;;;;5060960;28;19932;-79
2024/01/10 12:03:51;;;;;;;;;;;;;;;;;;5045417;28;19951;-80
2024/01/10 12:06:17;;;;;;;;;;;;;;;;;;5044708;28;20079;-80
2024/01/10 12:08:43;;;;;;;;;;;;;;;;;;5043674;28;19928;-78
2024/01/10 12:11:09;;;;;;;;;;;;;;;;;;5026390;28;20062;-79
2024/01/10 12:13:35;;;;;;;;;;;;;;;;;;5043385;28;19929;-83
2024/01/10 12:16:01;;;;;;;;;;;;;;;;;;5053116;28;19936;-82
2024/01/10 12:18:27;;;;;;;;;;;;;;;;;;5046894;28;19929;-83
2024/01/10 12:20:53;;;;;;;;;;;;;;;;;;5066156;28;20051;-83
2024/01/10 12:23:19;;;;;;;;;;;;;;;;;;5042604;28;19925;-82
2024/01/10 12:25:46;;;;;;;;;;;;;;;;;;5049423;28;19928;-82
2024/01/10 12:28:12;;;;;;;;;;;;;;;;;;5049035;28;19928;-83
2024/01/10 12:30:38;;;;;;;;;;;;;;;;;;5053457;28;19924;-83
2024/01/10 12:33:04;;;;;;;;;;;;;;;;;;5034349;28;20431;-83
2024/01/10 12:35:30;;;;;;;;;;;;;;;;;;5041027;28;19947;-83
2024/01/10 12:37:56;;;;;;;;;;;;;;;;;;5031620;28;19964;-83
2024/01/10 12:40:22;;;;;;;;;;;;;;;;;;5030900;28;19924;-83
2024/01/10 12:42:48;;;;;;;;;;;;;;;;;;5051245;28;20431;-84
2024/01/10 12:45:14;;;;;;;;;;;;;;;;;;5033949;28;19964;-86
2024/01/10 12:47:40;;;;;;;;;;;;;;;;;;5039731;28;19931;-85
2024/01/10 12:50:07;;;;;;;;;;;;;;;;;;5034341;28;20289;-84
2024/01/10 12:52:39;;;;;;;;;;;;;;;;;;5032569;28;19924;-84
2024/01/10 12:55:05;;;;;;;;;;;;;;;;;;5054258;28;20335;-84
2024/01/10 12:57:31;;;;;;;;;;;;;;;;;;5038671;28;20363;-83
2024/01/10 12:59:57;;;;;;;;;;;;;;;;;;5052622;28;20369;-86
2024/01/10 13:02:23;;;;;;;;;;;;;;;;;;5052993;28;20316;-87
2024/01/10 13:04:49;;;;;;;;;;;;;;;;;;5033415;28;19952;-87
2024/01/10 13:07:15;;;;;;;;;;;;;;;;;;5033986;28;19988;-85
2024/01/10 13:09:41;;;;;;;;;;;;;;;;;;5033514;28;19928;-86
2024/01/10 13:12:07;;;;;;;;;;;;;;;;;;5050399;28;20059;-87
2024/01/10 13:14:33;;;;;;;;;;;;;;;;;;5032525;28;19978;-86
2024/01/10 13:16:59;;;;;;;;;;;;;;;;;;5050454;28;20344;-87
2024/01/10 13:19:26;;;;;;;;;;;;;;;;;;5055102;28;19925;-85
2024/01/10 13:21:53;;;;;;;;;;;;;;;;;;5039894;28;19935;-86
2024/01/10 13:24:19;;;;;;;;;;;;;;;;;;5057114;28;19924;-87
2024/01/10 13:26:45;;;;;;;;;;;;;;;;;;5037538;28;19933;-87
2024/01/10 13:29:13;;;;;;;;;;;;;;;;;;5048419;28;19931;-87
2024/01/10 13:31:39;;;;;;;;;;;;;;;;;;5021356;28;19974;-87
2024/01/10 13:34:05;;;;;;;;;;;;;;;;;;5037750;28;19929;-87
2024/01/10 13:36:31;;;;;;;;;;;;;;;;;;5021156;28;19931;-84
2024/01/10 13:38:57;;;;;;;;;;;;;;;;;;5037560;28;20009;-86
2024/01/10 13:41:23;;;;;;;;;;;;;;;;;;5021040;28;19932;-87
2024/01/10 13:43:49;;;;;;;;;;;;;;;;;;5028737;28;20396;-86
2024/01/10 13:46:16;;;;;;;;;;;;;;;;;;5055528;28;19975;-86
2024/01/10 13:48:42;;;;;;;;;;;;;;;;;;5057276;28;19991;-87
2024/01/10 13:51:09;;;;;;;;;;;;;;;;;;5041026;28;20396;-85
2024/01/10 13:53:36;;;;;;;;;;;;;;;;;;5050706;28;19971;-86
2024/01/10 13:56:02;;;;;;;;;;;;;;;;;;5020907;28;19925;-86
2024/01/10 13:58:28;;;;;;;;;;;;;;;;;;5036548;28;19932;-87
2024/01/10 14:00:54;;;;;;;;;;;;;;;;;;5036571;28;19964;-87
2024/01/10 14:03:20;;;;;;;;;;;;;;;;;;5042888;28;19978;-85
2024/01/10 14:05:46;;;;;;;;;;;;;;;;;;5025932;28;19925;-87
2024/01/10 14:08:11;;;;;;;;;;;;;;;;;;5036180;28;19925;-82
2024/01/10 14:10:39;;;;;;;;;;;;;;;;;;5039328;28;19926;-81
2024/01/10 14:13:04;;;;;;;;;;;;;;;;;;5033110;28;19928;-86
2024/01/10 14:15:30;;;;;;;;;;;;;;;;;;5035877;28;19932;-86
2024/01/10 14:17:57;;;;;;;;;;;;;;;;;;5052322;28;19924;-77
2024/01/10 14:20:24;;;;;;;;;;;;;;;;;;5056326;28;20006;-77
2024/01/10 14:22:50;;;;;;;;;;;;;;;;;;5052837;28;20327;-78
2024/01/10 14:25:16;;;;;;;;;;;;;;;;;;5052699;28;19932;-76
2024/01/10 14:27:42;;;;;;;;;;;;;;;;;;5052886;28;20268;-84
2024/01/10 14:30:08;;;;;;;;;;;;;;;;;;5054841;28;19925;-83
2024/01/10 14:32:34;;;;;;;;;;;;;;;;;;5052264;28;19943;-83
2024/01/10 14:35:00;;;;;;;;;;;;;;;;;;5053011;28;19924;-84
2024/01/10 14:37:26;;;;;;;;;;;;;;;;;;5052685;28;19979;-83
2024/01/10 14:39:52;;;;;;;;;;;;;;;;;;5052824;28;20798;-84
2024/01/10 14:42:18;;;;;;;;;;;;;;;;;;5052583;28;20305;-83
2024/01/10 14:44:45;;;;;;;;;;;;;;;;;;5049998;28;19929;-83
2024/01/10 14:47:11;;;;;;;;;;;;;;;;;;5052764;28;19942;-83
2024/01/10 14:49:37;;;;;;;;;;;;;;;;;;5051575;28;19928;-83
2024/01/10 14:52:03;;;;;;;;;;;;;;;;;;5052718;28;19928;-82
2024/01/10 14:54:30;;;;;;;;;;;;;;;;;;5034016;28;19933;-82
2024/01/10 14:56:56;;;;;;;;;;;;;;;;;;5049382;28;20281;-81
2024/01/10 14:59:22;;;;;;;;;;;;;;;;;;5051709;28;19947;-82
2024/01/10 15:01:48;;;;;;;;;;;;;;;;;;5032756;28;20366;-82
2024/01/10 15:04:14;;;;;;;;;;;;;;;;;;5032489;28;20353;-82
2024/01/10 15:06:40;;;;;;;;;;;;;;;;;;5042004;28;19977;-82
2024/01/10 15:09:08;;;;;;;;;;;;;;;;;;5068344;28;19935;-80
2024/01/10 15:11:34;;;;;;;;;;;;;;;;;;5065958;28;20383;-81
2024/01/10 15:14:00;;;;;;;;;;;;;;;;;;5041436;28;19928;-80
2024/01/10 15:16:26;;;;;;;;;;;;;;;;;;5063194;28;20378;-80
2024/01/10 15:18:52;;;;;;;;;;;;;;;;;;5057970;28;19965;-80
2024/01/10 15:21:19;;;;;;;;;;;;;;;;;;5057109;28;19928;-80
2024/01/10 15:23:45;;;;;;;;;;;;;;;;;;5039695;28;20331;-80
2024/01/10 15:26:11;;;;;;;;;;;;;;;;;;5051730;28;19950;-80
2024/01/10 15:28:37;;;;;;;;;;;;;;;;;;5039572;28;19929;-80
2024/01/10 15:31:03;;;;;;;;;;;;;;;;;;5057957;28;19925;-79
2024/01/10 15:33:29;;;;;;;;;;;;;;;;;;5033348;28;19928;-80
2024/01/10 15:35:55;;;;;;;;;;;;;;;;;;5051364;28;19974;-80
2024/01/10 15:38:22;;;;;;;;;;;;;;;;;;5058311;28;19928;-80
2024/01/10 15:40:48;;;;;;;;;;;;;;;;;;5059618;28;20657;-81
2024/01/10 15:43:14;;;;;;;;;;;;;;;;;;5046919;28;19928;-81
2024/01/10 15:45:41;;;;;;;;;;;;;;;;;;5038286;28;19973;-81
2024/01/10 15:48:07;;;;;;;;;;;;;;;;;;5059181;28;20336;-81
2024/01/10 15:50:33;;;;;;;;;;;;;;;;;;5040923;28;20031;-81
2024/01/10 15:52:59;;;;;;;;;;;;;;;;;;5057828;28;19928;-84
2024/01/10 15:55:27;;;;;;;;;;;;;;;;;;5048732;28;20274;-81
2024/01/10 15:57:53;;;;;;;;;;;;;;;;;;5061379;28;20421;-83
2024/01/10 16:00:19;;;;;;;;;;;;;;;;;;5042862;28;19936;-82
2024/01/10 16:02:45;;;;;;;;;;;;;;;;;;5053825;28;20613;-79
2024/01/10 16:05:11;;;;;;;;;;;;;;;;;;5063664;28;20045;-81
2024/01/10 16:07:37;;;;;;;;;;;;;;;;;;5032322;28;20381;-81
2024/01/10 16:10:03;;;;;;;;;;;;;;;;;;5068187;28;20023;-83
2024/01/10 16:12:29;;;;;;;;;;;;;;;;;;5051520;28;19928;-83
2024/01/10 16:14:55;;;;;;;;;;;;;;;;;;5066890;28;19932;-84
2024/01/10 16:17:21;;;;;;;;;;;;;;;;;;5050982;28;20043;-85
2024/01/10 16:19:47;;;;;;;;;;;;;;;;;;5067546;28;19928;-85
2024/01/10 16:22:13;;;;;;;;;;;;;;;;;;5030281;28;19935;-83
2024/01/10 16:24:39;;;;;;;;;;;;;;;;;;5046097;28;20393;-84
2024/01/10 16:27:05;;;;;;;;;;;;;;;;;;5041359;28;19958;-85
2024/01/10 16:29:31;;;;;;;;;;;;;;;;;;5045026;28;20292;-84
2024/01/10 16:31:57;;;;;;;;;;;;;;;;;;5040186;28;19928;-84
2024/01/10 16:34:23;;;;;;;;;;;;;;;;;;5031266;28;19924;-84
2024/01/10 16:36:49;;;;;;;;;;;;;;;;;;5068204;28;19928;-83
2024/01/10 16:39:15;;;;;;;;;;;;;;;;;;5049723;28;19940;-84